Tiempo atmosférico en la estación meteorológica de Madrid Aeropuerto, Madrid (609 m.)



Fecha
DESCASC
Temp. máxima en grados centígrados (hora)
DESCASC
Temp. mínima en grados centígrados (hora)
DESCASC
Temp. media en grados centígrados
DESCASC
Racha de viento máxima en m/sg (hora)
DESCASC
Velocidad máxima media en intervalos de 10 minutos(hora)
DESCASC
Precipitaciones diarias en mm
DESCASC
Precipitaciones de 00:00 a 06:00 en mm
DESCASC
Precipitaciones de 06:00 a 12:00 en mm
DESCASC
Precipitaciones de 12:00 a 18:00 en mm
DESCASC
Precipitaciones de 18:00 a 24:00 en mm
DESCASC
02-08-2020 37.4 (17:40) 19.7 (07:30) 28.6 13.89 (16:50) 7.5 (23:10) 0 0 0 0 0
01-08-2020 39.1 (16:50) 18.6 (07:10) 28.8 13.33 (16:50) 8.06 (19:20) 0 0 0 0 0
31-07-2020 39.3 (17:00) 19.9 (07:30) 29.6 10.83 (18:40) 6.11 (18:40) 0 0 0 0 0
30-07-2020 40.5 (17:10) 23.1 (00:00) 31.8 15 (18:20) 10.28 (17:50) 0.3 0 0 0 0.3
29-07-2020 39 (18:10) 21.5 (00:00) 30.3 7.22 (16:20) 4.44 (19:00) 0 0 0 0 0
28-07-2020 37.2 (17:50) 23.1 (00:00) 30.2 12.5 (16:20) 6.11 (02:10) 0 0 0 0 0
27-07-2020 41.2 (18:30) 21.5 (00:00) 31.4 10.83 (16:00) 6.67 (16:30) 0 0 0 0 0
26-07-2020 39.8 (17:40) 19 (00:00) 29.4 10.28 (17:10) 6.11 (17:10) 0 0 0 0 0
25-07-2020 38.1 (17:40) 21.1 (00:00) 29.6 11.67 (00:50) 5.56 (00:40) 0 0 0 0 0
24-07-2020 38.1 (18:00) 20.6 (00:00) 29.3 10.83 (15:20) 5.83 (18:40) 0 0 0 0 0
23-07-2020 37.3 (17:00) 18.9 (00:00) 28.1 8.33 (17:50) 5 (18:20) 0 0 0 0 0
22-07-2020 34.7 (18:40) 18.6 (00:00) 26.7 7.22 (15:40) -- (--) 3 2.1 0.9 0 0
21-07-2020 36.7 (14:40) 20.2 (00:00) 28.5 11.67 (23:00) 7.5 (22:30) 0 0 0 0 0
20-07-2020 38.2 (18:20) 17.7 (00:00) 28 10.28 (17:00) 5.56 (16:40) 0 0 0 0 0
19-07-2020 38.1 (17:30) 18.4 (00:00) 28.2 12.5 (16:10) 6.39 (16:40) 0 0 0 0 0
18-07-2020 36.8 (19:20) 16.7 (00:00) 26.8 7.78 (01:50) 4.17 (01:50) 0 0 0 0 0
17-07-2020 36.3 (17:30) 20.4 (00:00) 28.3 11.39 (17:00) 6.94 (21:30) 0 0 0 0 0
16-07-2020 36.5 (19:40) 17.9 (00:00) 27.2 10.28 (01:00) 6.67 (23:00) 0 0 0 0 0
15-07-2020 34.3 (18:30) 17.2 (00:00) 25.8 8.89 (14:40) 4.17 (23:59) 0 0 0 0 0
14-07-2020 34.7 (17:30) 19.3 (00:00) 27 10.28 (21:00) 6.67 (21:20) 0 0 0 0 0
13-07-2020 35.8 (18:10) 16.7 (00:00) 26.3 10.83 (23:40) 6.67 (23:20) 0 0 0 0 0
12-07-2020 34.9 (16:40) 22.4 (23:30) 28.7 12.78 (18:40) 8.06 (18:40) 0 0 0 0 0
11-07-2020 37.5 (19:00) 20.4 (07:30) 28.9 10.28 (23:00) 7.22 (21:00) 0 0 0 0 0
10-07-2020 34.3 (18:50) 17.5 (00:00) 25.9 8.33 (16:10) 4.17 (00:10) 0 0 0 0 0
09-07-2020 34.8 (15:30) 20.8 (08:00) 27.8 14.44 (18:50) 8.89 (18:50) 0 0 0 0 0
08-07-2020 36.9 (16:30) 22.8 (07:00) 29.9 17.5 (18:30) 12.22 (19:50) 0 0 0 0 0

Gráficas

Temp. máximas Temp. mínimas Temp. medias Precipitaciones Rachas de viento máximas Velocidades máximas media en intervalos de 10 minutos

Datos horarios

Fecha y hora oficial Temperatura (ºC) Velocidad del viento (km/h) Dirección del viento Racha (km/h) Dirección de racha Precipitación (mm) Presión (hPa) Tendencia (hPa) Humedad (%)
2020-08-06 23:00:00 32.4 8 Sudeste 13 Sudeste 0 947.6 1.2 26
2020-08-06 22:00:00 34.3 8 Sudeste 13 Sur 0 946.9 0.6 23
2020-08-06 21:00:00 36.4 12 Sudeste 17 Sur 0 946.6 0 20
2020-08-06 20:00:00 37.9 12 Sur 18 Sur 0 946.4 -- 19
2020-08-06 19:00:00 38.2 6 Oeste 24 Sur 0 946.3 -- 18
2020-08-06 18:00:00 38.5 14 Sur 28 Sur 0 946.6 -- 17
2020-08-06 17:00:00 38.3 15 Sur 35 Sur 0 946.9 -- 18
2020-08-06 16:00:00 37.4 11 Sudoeste 24 Sudoeste 0 947.5 -- 23
2020-08-06 15:00:00 36.3 8 Sudoeste 35 Sudoeste 0 948.1 -- 26
2020-08-06 14:00:00 34.7 10 Sur 32 Sur 0 948.4 -- 31
2020-08-06 13:00:00 33.1 10 Sudeste 24 Sur 0 948.9 -- 34
2020-08-06 12:00:00 31.1 9 Sur 22 Sudeste 0 949.1 -- 40
2020-08-06 11:00:00 29.8 11 Sudeste 21 Sudeste 0 949.3 -- 43
2020-08-06 10:00:00 27.4 5 Nordeste 9 Norte 0 949.4 -- 46
2020-08-06 09:00:00 24.6 6 Noroeste 9 Norte 0 949.2 -- 44
2020-08-06 08:00:00 22.7 4 Nordeste 9 Nordeste 0 948.5 -- 46
2020-08-06 07:00:00 21.8 5 Noroeste 8 Noroeste 0 948.2 -- 40
2020-08-06 06:00:00 22.7 6 Norte 9 Norte 0 947.8 -- 36
2020-08-06 05:00:00 22.9 5 Norte 9 Nordeste 0 947.5 -- 34
2020-08-06 04:00:00 22.9 6 Nordeste 9 Nordeste 0 947.1 -- 34
2020-08-06 03:00:00 23.8 7 Nordeste 13 Este 0 947.1 -- 34
2020-08-06 02:00:00 24.6 7 Norte 15 Noroeste 0 946.6 -- 33
2020-08-06 01:00:00 25.4 10 Oeste 17 Oeste 0 946.1 -- 32
2020-08-06 00:00:00 28 7 Este 9 Este 0 945.7 -- 27
2020-08-05 23:00:00 29.7 5 Sudeste 9 Sudeste 0 945.5 -- 24
2020-08-05 22:00:00 31.2 6 Sudeste 11 Sur 0 944.9 -- 21
2020-08-05 21:00:00 34.8 9 Sudeste 15 Sur 0 944.5 -- 17
2020-08-05 20:00:00 36.7 6 Sudoeste 18 Sudoeste 0 944.3 -- 15
2020-08-05 19:00:00 36.4 5 Este 26 Sudoeste 0 944.3 -- 15
2020-08-05 18:00:00 36.5 12 Sur 21 Sur 0 944.5 -- 16
2020-08-05 17:00:00 36.2 10 Sudoeste 24 Sudoeste 0 944.8 -- 17
2020-08-05 16:00:00 35.2 9 Oeste 33 Sudoeste 0 945.4 -- 20
2020-08-05 15:00:00 34.8 18 Sudoeste 35 Sudoeste 0 945.8 -- 22
2020-08-05 14:00:00 33.3 13 Sur 30 Sudoeste 0 946.4 -- 26
2020-08-05 13:00:00 30.8 8 Sudeste 18 Sudoeste 0 946.9 -- 36
2020-08-05 12:00:00 29 8 Sur 15 Sudeste 0 947.5 -- 43
2020-08-05 11:00:00 26.7 6 Este 13 Sudeste 0 947.7 -- 45
2020-08-05 10:00:00 23.9 5 Norte 11 Nordeste 0 948 -- 39
2020-08-05 09:00:00 21.2 6 Norte 11 Norte 0 948.1 -- 41
2020-08-05 08:00:00 18.3 5 Norte 9 Norte 0 947.9 -- 47
2020-08-05 07:00:00 18.4 4 Norte 8 Norte 0 947.5 -- 48
2020-08-05 06:00:00 18.8 4 Norte 5 Norte 0 947.2 -- 49
2020-08-05 05:00:00 19.7 0 Calma 9 Nordeste 0 947.3 -- 45
2020-08-05 04:00:00 21.7 6 Nordeste 17 Norte 0 947.1 -- 39
2020-08-05 03:00:00 22.8 13 Norte 18 Norte 0 947 -- 36
2020-08-05 02:00:00 24.5 12 Norte 21 Norte 0 947.1 -- 31
2020-08-05 01:00:00 25.6 2 Nordeste 9 Noroeste 0 946.9 -- 29
2020-08-05 00:00:00 26.9 5 Norte 18 Norte 0 946.5 -- 27
2020-08-04 23:00:00 28.2 9 Norte 28 Norte 0 946.4 -- 26
2020-08-04 22:00:00 29.5 10 Sur 13 Sur 0 945.8 -- 25
2020-08-04 21:00:00 32.4 6 Sudoeste 15 Sudoeste 0 945.5 -- 21
2020-08-04 20:00:00 33.3 3 Este 13 Noroeste 0 945.4 -- 21
2020-08-04 19:00:00 33.3 3 Noroeste 13 Nordeste 0 945.5 -- 21
2020-08-04 18:00:00 33.2 10 Sudoeste 21 Noroeste 0 945.9 -- 22
2020-08-04 17:00:00 33.2 9 Sudoeste 26 Sur 0 946.5 -- 22
2020-08-04 16:00:00 31.9 10 Sudoeste 22 Sudoeste 0 947 -- 24
2020-08-04 15:00:00 31.6 8 Sudoeste 18 Oeste 0 947.8 -- 25
2020-08-04 14:00:00 29.7 6 Oeste 18 Norte 0 948.5 -- 27
2020-08-04 13:00:00 28.5 9 Norte 22 Norte 0 949.2 -- 29
2020-08-04 12:00:00 27.1 11 Norte 21 Norte 0 949.4 -- 32
2020-08-04 11:00:00 24.2 11 Nordeste 24 Nordeste 0 949.8 -- 38
2020-08-04 10:00:00 22.1 14 Nordeste 28 Nordeste 0 950.1 -- 43
2020-08-04 09:00:00 20 13 Nordeste 26 Nordeste 0 950.1 -- 49
2020-08-04 08:00:00 17.8 10 Norte 17 Nordeste 0 950 -- 56
2020-08-04 07:00:00 17.9 3 Nordeste 24 Este 0 949.7 -- 56
2020-08-04 06:00:00 18.5 7 Nordeste 28 Nordeste 0 949.5 -- 55
2020-08-04 05:00:00 19.3 15 Nordeste 30 Nordeste 0 949.4 -- 52
2020-08-04 04:00:00 20.1 13 Nordeste 24 Nordeste 0 949.3 -- 50
2020-08-04 03:00:00 21.5 9 Nordeste 26 Este 0 949 -- 45
2020-08-04 02:00:00 22.9 12 Nordeste 32 Este 0 949 -- 41
2020-08-04 01:00:00 24.2 13 Nordeste 26 Nordeste 0 948.5 -- 34
2020-08-04 00:00:00 24.8 9 Nordeste 17 Norte 0 948.3 -- 31
2020-08-03 23:00:00 26.5 12 Nordeste 30 Norte 0 947.6 -- 29
2020-08-03 22:00:00 28 18 Norte 32 Norte 0 946.7 -- 26
2020-08-03 21:00:00 30.2 19 Norte 28 Norte 0 946.2 -- 22
2020-08-03 20:00:00 32.2 20 Norte 32 Norte 0 945.8 -- 17
2020-08-03 19:00:00 33.3 13 Norte 24 Norte 0 945.8 -- 16
2020-08-03 18:00:00 33.6 8 Norte 30 Norte 0 946 -- 17
2020-08-03 17:00:00 33.5 13 Nordeste 30 Norte 0 946.2 -- 18
2020-08-03 16:00:00 33 17 Norte 35 Norte 0 947 -- 19
2020-08-03 15:00:00 31.9 18 Norte 37 Norte 0 947.6 -- 21
2020-08-03 14:00:00 30.9 16 Norte 42 Norte 0 948.3 -- 21
2020-08-03 13:00:00 29.3 10 Norte 21 Nordeste 0 948.9 -- 25
2020-08-03 12:00:00 27.6 13 Norte 24 Norte 0 949.5 -- 27
2020-08-03 11:00:00 26.1 10 Norte 22 Nordeste 0 949.5 -- 32
2020-08-03 10:00:00 23.6 9 Nordeste 24 Nordeste 0 949.4 -- 37
2020-08-03 09:00:00 21 11 Este 21 Este 0 949.2 -- 44
2020-08-03 08:00:00 18.9 9 Nordeste 18 Nordeste 0 949.2 -- 52
2020-08-03 07:00:00 19.1 4 Nordeste 21 Nordeste 0 949 -- 52
2020-08-03 06:00:00 20 8 Este 26 Nordeste 0 948.6 -- 52
2020-08-03 05:00:00 20.3 13 Nordeste 28 Este 0 948.5 -- 53
2020-08-03 04:00:00 20.9 14 Nordeste 32 Nordeste 0 948.6 -- 53
2020-08-03 03:00:00 21.8 8 Nordeste 26 Este 0 948.6 -- 49
2020-08-03 02:00:00 22.7 14 Nordeste 30 Nordeste 0 948.7 -- 44
2020-08-03 01:00:00 24.2 9 Nordeste 45 Norte 0 948.8 -- 34
2020-08-03 00:00:00 25.8 18 Norte 45 Norte 0 948.5 -- 32
2020-08-02 23:00:00 26.7 24 Norte 46 Norte 0 947.7 -- 34
2020-08-02 22:00:00 28 14 Norte 28 Norte 0 946.7 -- 33
2020-08-02 21:00:00 31.6 15 Norte 30 Oeste 0 946 -- 28
2020-08-02 20:00:00 34 19 Oeste 33 Noroeste 0 945.4 -- 18
2020-08-02 19:00:00 34.3 22 Oeste 35 Oeste 0 945.6 -- 17
2020-08-02 18:00:00 36.7 21 Oeste 35 Sudoeste 0 945.9 -- 12
2020-08-02 17:00:00 36.8 5 Sudoeste 50 Sudoeste 0 946.1 -- 16
2020-08-02 16:00:00 36.3 9 Sudoeste 30 Sur 0 946.6 -- 17
2020-08-02 15:00:00 34.9 10 Sur 28 Oeste 0 947.5 -- 21
2020-08-02 14:00:00 33.7 6 Sudoeste 30 Noroeste 0 948.2 -- 24
2020-08-02 13:00:00 32.1 4 Sudeste 18 Sudoeste 0 948.8 -- 31
2020-08-02 12:00:00 29.8 6 Sudoeste 15 Sudeste 0 949.2 -- 36
2020-08-02 11:00:00 27.9 5 Sudeste 15 Sudeste 0 949.6 -- 41
2020-08-02 10:00:00 25.6 5 Nordeste 13 Norte 0 949.7 -- 46
2020-08-02 09:00:00 23 9 Norte 17 Norte 0 949.4 -- 52
2020-08-02 08:00:00 20 9 Norte 11 Norte 0 949.5 -- 63
2020-08-02 07:00:00 20.2 6 Norte 11 Norte 0 949.7 -- 59
2020-08-02 06:00:00 21.4 9 Norte 15 Norte 0 949.6 -- 55
2020-08-02 05:00:00 22 6 Norte 11 Norte 0 949.4 -- 46
2020-08-02 04:00:00 22.8 0 Calma 8 Nordeste 0 949.3 -- 40
2020-08-02 03:00:00 22.8 7 Nordeste 9 Nordeste 0 949.5 -- 34
2020-08-02 02:00:00 24.3 0 Calma 11 Nordeste 0 949.5 -- 30
2020-08-02 01:00:00 25.8 0 Calma -- -- 0 949.4 -- 27
2020-08-02 00:00:00 27.6 2 Este 13 Este 0 949.3 -- 24
2020-08-01 23:00:00 30 6 Norte 15 Noroeste 0 949.1 -- 22
2020-08-01 22:00:00 32.5 8 Norte 26 Noroeste 0 948.4 -- 17
2020-08-01 21:00:00 35.3 19 Oeste 33 Noroeste 0 947.9 -- 14
2020-08-01 20:00:00 37.1 23 Noroeste 39 Noroeste 0 947.7 -- 12
2020-08-01 19:00:00 38.5 10 Sudoeste 37 Sudoeste 0 947.6 -- 11
2020-08-01 18:00:00 39 18 Sudoeste 39 Sudoeste 0 948 -- 10
2020-08-01 17:00:00 38.9 19 Sur 48 Sudoeste 0 948.4 -- 8
2020-08-01 16:00:00 38.6 22 Sudoeste 41 Sur 0 948.8 -- 8
2020-08-01 15:00:00 38.2 22 Sudoeste 39 Sur 0 949.3 -- 8
2020-08-01 14:00:00 37.1 22 Sudoeste 32 Sur 0 949.7 -- 11
2020-08-01 13:00:00 35.3 10 Sudoeste 24 Sudoeste 0 950.4 -- 16
2020-08-01 12:00:00 33.3 15 Sudoeste 21 Sudoeste 0 950.8 -- 19
2020-08-01 11:00:00 30.8 6 Sur 17 Sudoeste 0 950.5 -- 24
2020-08-01 10:00:00 26.9 0 Calma 5 Norte 0 950.7 -- 29
2020-08-01 09:00:00 23 4 Norte 8 Nordeste 0 950.5 -- 34
2020-08-01 08:00:00 18.8 8 Nordeste 11 Oeste 0 950.4 -- 42
2020-08-01 07:00:00 19 4 Nordeste 8 Norte 0 949.9 -- 40
2020-08-01 06:00:00 19.9 6 Norte 9 Norte 0 949.5 -- 39
2020-08-01 05:00:00 21.1 8 Norte 11 Nordeste 0 949.2 -- 36
2020-08-01 04:00:00 22.9 6 Norte 13 Norte 0 948.9 -- 31
2020-08-01 03:00:00 23.8 7 Norte 11 Norte 0 948.9 -- 29
2020-08-01 02:00:00 25.9 2 Nordeste 11 Sudeste 0 949.2 -- 28
2020-08-01 01:00:00 28.8 9 Este 15 Sudoeste 0 949.3 -- 24
2020-08-01 00:00:00 31.9 12 Oeste 15 Oeste 0 948.9 -- 20
2020-07-31 23:00:00 33.4 13 Oeste 22 Sudoeste 0 948.6 -- 17
2020-07-31 22:00:00 35 12 Oeste 30 Sudoeste 0 948 -- 14
2020-07-31 21:00:00 37.2 15 Sudoeste 30 Sudoeste 0 947.7 -- 12
2020-07-31 20:00:00 38.4 17 Sudoeste 33 Sudoeste 0 947.5 -- 10
2020-07-31 19:00:00 39 21 Sudoeste 39 Oeste 0 947.6 -- 10
2020-07-31 18:00:00 39.1 18 Sudoeste 30 Sudoeste 0 948 -- 10
2020-07-31 17:00:00 39.1 18 Oeste 33 Sur 0 948.4 -- 11
2020-07-31 16:00:00 38.4 15 Sudoeste 37 Sudoeste 0 948.7 -- 13
2020-07-31 15:00:00 37.1 18 Sudoeste 33 Sudoeste 0 949 -- 14
2020-07-31 14:00:00 35.8 13 Sudoeste 37 Sudoeste 0 949.4 -- 20
2020-07-31 13:00:00 34.5 11 Sudoeste 21 Oeste 0 949.7 -- 24
2020-07-31 12:00:00 31.6 4 Sudoeste 13 Sudoeste 0 949.9 -- 28
2020-07-31 11:00:00 29.5 3 Oeste 9 Norte 0 950.2 -- 33
2020-07-31 10:00:00 26.4 3 Norte 11 Nordeste 0 950.1 -- 40
2020-07-31 09:00:00 22.8 5 Noroeste 11 Norte 0 949.9 -- 50
2020-07-31 08:00:00 20.4 9 Norte 13 Noroeste 0 949.6 -- 58
2020-07-31 07:00:00 20.1 7 Norte 9 Nordeste 0 949.1 -- 58
2020-07-31 06:00:00 21 7 Norte 17 Noroeste 0 948.7 -- 54
2020-07-31 05:00:00 22.7 9 Norte 17 Noroeste 0 948.5 -- 48
2020-07-31 04:00:00 23.1 6 Norte 13 Noroeste 0 948.2 -- 47
2020-07-31 03:00:00 24.4 9 Norte 18 Norte 0 948.2 -- 42
2020-07-31 02:00:00 25.5 5 Norte 11 Norte 0 947.9 -- 35
2020-07-31 01:00:00 28.4 2 Sur 22 Sur 0 947.8 -- 29
2020-07-31 00:00:00 30.2 15 Sudeste 22 Sudeste 0 947.4 -- 26
2020-07-30 23:00:00 33.2 12 Oeste 26 Oeste 0 946.8 -- 23
2020-07-30 22:00:00 35.2 22 Sudoeste 37 Sudoeste 0 945.6 -- 16
2020-07-30 21:00:00 36.7 30 Sudoeste 52 Sudoeste 0 944.8 -- 14
2020-07-30 20:00:00 34.4 8 Sudeste 15 Sudeste 0 944.3 -- 29
2020-07-30 19:00:00 30.9 9 Sudeste 54 Sur 0.3 943.9 -- 43
2020-07-30 18:00:00 37.8 36 Sudeste 48 Sur 0 944.2 -- 18
2020-07-30 17:00:00 40.3 26 Sur 37 Sur 0 944.7 -- 14
2020-07-30 16:00:00 39.8 24 Sur 41 Sur 0 945.3 -- 16
2020-07-30 15:00:00 38.7 14 Sudeste 39 Sudoeste 0 946.3 -- 18
2020-07-30 14:00:00 37.9 17 Sur 32 Sur 0 947.5 -- 19
2020-07-30 13:00:00 35.1 9 Sudoeste 18 Sur 0 948.2 -- 25
2020-07-30 12:00:00 33.3 5 Sudoeste 18 Sudeste 0 948.5 -- 27
2020-07-30 11:00:00 31.5 6 Nordeste 15 Nordeste 0 948.5 -- 30
2020-07-30 10:00:00 28.6 6 Norte 11 Nordeste 0 948.9 -- 38
2020-07-30 09:00:00 25.5 6 Norte 11 Norte 0 948.9 -- 46
2020-07-30 08:00:00 23.2 6 Norte 9 Norte 0 948.5 -- 51
2020-07-30 07:00:00 23.3 4 Norte 8 Nordeste 0 948.5 -- 46
2020-07-30 06:00:00 25.6 4 Este 15 Sudeste 0 948.2 -- 40
2020-07-30 05:00:00 26.4 4 Sudeste 15 Sudeste 0 948.1 -- 44
2020-07-30 04:00:00 28.2 14 Sur 21 Sudeste 0 947.9 -- 40
2020-07-30 03:00:00 29.1 14 Sudeste 21 Sudeste 0 947.5 -- 40
2020-07-30 02:00:00 29.5 6 Este 15 Sudeste 0 947.4 -- 42
2020-07-30 01:00:00 30.7 6 Nordeste 24 Sudeste 0 947.4 -- 39
2020-07-30 00:00:00 31.6 13 Sudeste 24 Sudeste 0 946.9 -- 34
2020-07-29 23:00:00 32.4 11 Sudeste 22 Este 0 946.4 -- 26
2020-07-29 22:00:00 33.6 5 Sudeste 8 Sudeste 0 945.5 -- 19
2020-07-29 21:00:00 36.8 5 Sudeste 21 Sur 0 945.3 -- 16
2020-07-29 20:00:00 38.3 10 Sudoeste 26 Sudeste 0 945.1 -- 15
2020-07-29 19:00:00 38.5 16 Sudeste 26 Sudeste 0 945.2 -- 15
2020-07-29 18:00:00 38.8 9 Sudeste 26 Sur 0 945.8 -- 16
2020-07-29 17:00:00 38.7 6 Sudoeste 26 Sudeste 0 946.2 -- 17
2020-07-29 16:00:00 38.2 9 Sudeste 22 Sudoeste 0 946.9 -- 18
2020-07-29 15:00:00 37.4 10 Sur 22 Sur 0 947.4 -- 20
2020-07-29 14:00:00 36 9 Sudeste 18 Sur 0 948 -- 25
2020-07-29 13:00:00 34.2 9 Sur 18 Sudeste 0 948.6 -- 28
2020-07-29 12:00:00 32.3 6 Noroeste 15 Sudeste 0 949 -- 32
2020-07-29 11:00:00 30.5 4 Norte 11 Norte 0 949 -- 34
2020-07-29 10:00:00 28.1 6 Sudeste 9 Sudeste 0 949.2 -- 42
2020-07-29 09:00:00 24.8 5 Norte 9 Norte 0 949 -- 48
2020-07-29 08:00:00 22 6 Norte 9 Norte 0 948.6 -- 55
2020-07-29 07:00:00 21.6 6 Norte 8 Norte 0 948.4 -- 55
2020-07-29 06:00:00 22.2 4 Norte 5 Norte 0 948 -- 53
2020-07-29 05:00:00 23.1 5 Norte 9 Norte 0 947.7 -- 49
2020-07-29 04:00:00 24 6 Norte 9 Norte 0 947.7 -- 46
2020-07-29 03:00:00 25.7 5 Norte 11 Este 0 947.7 -- 41
2020-07-29 02:00:00 26.7 5 Norte 15 Norte 0 947.6 -- 38
2020-07-29 01:00:00 27.1 0 Calma 15 Norte 0 947.3 -- 36
2020-07-29 00:00:00 28.6 10 Noroeste 15 Noroeste 0 947.1 -- 33
2020-07-28 23:00:00 29.9 5 Norte 8 Norte 0 946.7 -- 31
2020-07-28 22:00:00 32.5 7 Este 11 Este 0 946.4 -- 27
2020-07-28 21:00:00 35.6 0 Calma 13 Norte 0 946.2 -- 22
2020-07-28 20:00:00 35.7 4 Noroeste 22 Oeste 0 946.2 -- 22
2020-07-28 19:00:00 36.3 7 Noroeste 21 Oeste 0 946.3 -- 21
2020-07-28 18:00:00 36.2 9 Oeste 30 Oeste 0 946.5 -- 20
2020-07-28 17:00:00 36.8 10 Sudoeste 45 Oeste 0 946.6 -- 19
2020-07-28 16:00:00 35.9 18 Sudoeste 39 Sur 0 946.9 -- 23
2020-07-28 15:00:00 34.1 15 Sur 32 Sudoeste 0 947.4 -- 28
2020-07-28 14:00:00 33.6 16 Sudoeste 32 Sur 0 947.8 -- 30
2020-07-28 13:00:00 33.4 13 Oeste 37 Sudoeste 0 948.1 -- 31
2020-07-28 12:00:00 32.5 17 Sudoeste 37 Oeste 0 948.3 -- 32
2020-07-28 11:00:00 31.9 15 Sur 22 Sur 0 948.2 -- 33
2020-07-28 10:00:00 28.3 3 Oeste 9 Oeste 0 948.6 -- 37
2020-07-28 09:00:00 26.1 5 Norte 9 Norte 0 948.4 -- 40
2020-07-28 08:00:00 23.4 3 Este 9 Sudeste 0 948.2 -- 44
2020-07-28 07:00:00 24.9 6 Sudeste 15 Sudeste 0 947.9 -- 38
2020-07-28 06:00:00 26.3 11 Sudeste 15 Sudeste 0 947.6 -- 32
2020-07-28 05:00:00 27.1 8 Sudeste 17 Sur 0 947.6 -- 31
2020-07-28 04:00:00 29.7 12 Sur 26 Sudoeste 0 946.9 -- 26
2020-07-28 03:00:00 31.7 19 Sudoeste 28 Sudoeste 0 946.8 -- 23
2020-07-28 02:00:00 32.7 21 Sudoeste 32 Sudoeste 0 947.2 -- 22
2020-07-28 01:00:00 31 6 Sudeste 13 Oeste 0 947.2 -- 26
2020-07-28 00:00:00 34.5 13 Sudoeste 18 Oeste 0 946.9 -- 20
2020-07-27 23:00:00 35.5 13 Oeste 18 Oeste 0 946.5 -- 20
2020-07-27 22:00:00 37 10 Sudoeste 24 Sudoeste 0 945.8 -- 18
2020-07-27 21:00:00 38.9 10 Oeste 32 Sur 0 945.3 -- 16
2020-07-27 20:00:00 40 21 Sur 32 Sur 0 945.3 -- 15
2020-07-27 19:00:00 40.7 14 Sudoeste 33 Sudoeste 0 945.6 -- 15
2020-07-27 18:00:00 40.8 21 Sudoeste 33 Sudoeste 0 946.2 -- 14
2020-07-27 17:00:00 40.9 16 Sudoeste 37 Sudoeste 0 946.7 -- 15
2020-07-27 16:00:00 40 19 Sudoeste 39 Oeste 0 947.5 -- 15
2020-07-27 15:00:00 38.3 14 Oeste 26 Sudoeste 0 948.2 -- 17
2020-07-27 14:00:00 37 15 Sudoeste 28 Sudoeste 0 949 -- 19
2020-07-27 13:00:00 35 7 Sur 18 Sur 0 949.6 -- 25
2020-07-27 12:00:00 32.5 5 Sur 15 Sudeste 0 949.8 -- 30
2020-07-27 09:00:00 24.3 5 Norte 9 Norte 0 949.8 0.9 37
2020-07-27 08:00:00 21.8 4 Norte 8 Norte 0 949.4 0.7 40
2020-07-27 07:00:00 21.5 8 Norte 11 Norte 0 949.1 1 40
2020-07-27 06:00:00 23.2 9 Norte 17 Norte 0 948.9 1 36
2020-07-27 05:00:00 23.6 12 Norte 17 Noroeste 0 948.7 0.6 35
2020-07-27 04:00:00 23.9 8 Norte 13 Noroeste 0 948.1 0.3 33
2020-07-27 03:00:00 24.5 6 Norte 11 Noroeste 0 947.9 0.3 30
2020-07-27 02:00:00 25.1 3 Norte 15 Sudeste 0 948.1 1.1 28
2020-07-27 01:00:00 27 9 Noroeste 11 Norte 0 947.8 1.4 23
2020-07-27 00:00:00 28.7 5 Norte 11 Norte 0 947.6 1.6 21
2020-07-26 23:00:00 32.2 3 Norte 15 Oeste 0 947 1.2 17
2020-07-26 22:00:00 34.9 7 Sudoeste 17 Sudoeste 0 946.4 0.4 14
2020-07-26 21:00:00 37.8 13 Sudoeste 32 Oeste 0 946 -0.3 12
2020-07-26 20:00:00 38.9 14 Oeste 32 Oeste 0 945.8 -0.9 10
2020-07-26 19:00:00 39.4 17 Sudoeste 32 Oeste 0 946 -1.4 11
2020-07-26 18:00:00 39.5 18 Oeste 37 Sudoeste 0 946.3 -1.6 10
2020-07-26 17:00:00 39.1 12 Sudoeste 28 Sudoeste 0 946.7 -1.7 12
2020-07-26 16:00:00 38.6 14 Oeste 28 Oeste 0 947.4 -1.4 13
2020-07-26 15:00:00 37.8 14 Oeste 32 Oeste 0 947.9 -1.1 14
2020-07-26 14:00:00 36.8 7 Sudoeste 22 Sur 0 948.4 -0.8 16
2020-07-26 13:00:00 35.2 9 Sur 17 Sur 0 948.8 -0.5 18
2020-07-26 12:00:00 33.1 9 Norte 15 Norte 0 949 0 23
2020-07-26 11:00:00 30.1 6 Este 11 Este 0 949.2 0.7 28
2020-07-26 10:00:00 26.4 5 Oeste 11 Oeste 0 949.3 -- 30
2020-07-26 09:00:00 22.9 3 Norte 8 Noroeste 0 949 -- 38
2020-07-26 08:00:00 19.2 6 Norte 11 Norte 0 948.5 -- 49
2020-07-26 07:00:00 19 5 Norte 11 Nordeste 0 948.1 -- 49
2020-07-26 06:00:00 19.9 0 Calma 9 Nordeste 0 947.8 -- 46
2020-07-26 05:00:00 20.9 6 Este 9 Nordeste 0 947.1 -- 42
2020-07-26 04:00:00 22.5 0 Calma 4 Sudeste 0 946.9 -- 37
2020-07-26 03:00:00 24.1 5 Noroeste 9 Noroeste 0 946.9 -- 36
2020-07-26 02:00:00 25 0 Calma 9 Nordeste 0 946.9 -- 33
2020-07-26 01:00:00 26.7 4 Norte 11 Norte 0 946.7 -- 29
2020-07-26 00:00:00 29.9 10 Norte 15 Norte 0 946.4 -- 25
2020-07-25 23:00:00 32.3 9 Noroeste 28 Oeste 0 945.9 -- 20
2020-07-25 22:00:00 34.3 16 Sudoeste 33 Sudoeste 0 945.1 -- 16
2020-07-25 21:00:00 36.1 18 Sudoeste 26 Sudoeste 0 944.8 -- 15
2020-07-25 20:00:00 37.1 12 Sudoeste 33 Sur 0 944.8 -- 13
2020-07-25 19:00:00 37.8 15 Sur 37 Oeste 0 945 -- 11
2020-07-25 18:00:00 37.8 15 Sudoeste 35 Sudoeste 0 945.5 -- 13
2020-07-25 17:00:00 37.6 18 Sudoeste 39 Sur 0 946 -- 16
2020-07-25 16:00:00 36.7 18 Oeste 33 Sudoeste 0 946.6 -- 17
2020-07-25 15:00:00 35.6 13 Oeste 33 Oeste 0 947.2 -- 19
2020-07-25 14:00:00 34.1 10 Oeste 21 Oeste 0 947.8 -- 25
2020-07-25 13:00:00 32.2 6 Sudoeste 17 Sudeste 0 948.3 -- 32
2020-07-25 12:00:00 30.1 8 Sur 13 Sur 0 948.6 -- 36
2020-07-25 11:00:00 28.1 5 Sur 13 Sur 0 948.9 -- 37
2020-07-25 10:00:00 26.1 5 Norte 11 Este 0 949.1 -- 38
2020-07-25 09:00:00 23.7 6 Norte 11 Norte 0 949 -- 40
2020-07-25 08:00:00 21.1 7 Norte 15 Norte 0 948.8 -- 47
2020-07-25 07:00:00 21.3 8 Norte 17 Norte 0 948.6 -- 49
2020-07-25 06:00:00 21.8 12 Norte 17 Norte 0 948.2 -- 50
2020-07-25 05:00:00 22.7 9 Norte 22 Norte 0 948.4 -- 49
2020-07-25 04:00:00 23.5 11 Norte 24 Norte 0 948.2 -- 46
2020-07-25 03:00:00 24.5 8 Norte 30 Nordeste 0 948.3 -- 43
2020-07-25 02:00:00 25.9 16 Nordeste 37 Este 0 948.2 -- 40
2020-07-25 01:00:00 27.5 17 Nordeste 42 Nordeste 0 947.9 -- 35
2020-07-25 00:00:00 29.3 18 Nordeste 35 Nordeste 0 947.5 -- 24
2020-07-24 23:00:00 30.4 11 Norte 28 Norte 0 946.8 -- 22
2020-07-24 22:00:00 32.5 17 Norte 32 Norte 0 945.7 -- 19
2020-07-24 21:00:00 35.1 18 Norte 30 Norte 0 945.2 -- 20
2020-07-24 20:00:00 36 13 Sudoeste 28 Sudoeste 0 944.8 -- 15
2020-07-24 19:00:00 37.7 13 Sudoeste 35 Sudoeste 0 944.9 -- 14
2020-07-24 18:00:00 38.1 17 Oeste 37 Sudoeste 0 945.2 -- 15
2020-07-24 17:00:00 37.7 13 Sudoeste 33 Sudoeste 0 945.7 -- 16
2020-07-24 16:00:00 37.2 13 Sur 39 Oeste 0 946.2 -- 17
2020-07-24 15:00:00 36.4 16 Sudoeste 35 Sudoeste 0 946.8 -- 19
2020-07-24 14:00:00 35 7 Sudoeste 28 Sudoeste 0 947.3 -- 24
2020-07-24 13:00:00 33.6 8 Norte 15 Norte 0 947.9 -- 26
2020-07-24 12:00:00 32.3 5 Sur 13 Sudoeste 0 948 -- 30
2020-07-24 11:00:00 29.5 4 Nordeste 13 Sudeste 0 948.1 -- 37
2020-07-24 10:00:00 27.3 5 Sudeste 13 Sudeste 0 948.3 -- 42
2020-07-24 09:00:00 24.4 7 Norte 13 Norte 0 948.2 -- 45
2020-07-24 08:00:00 21.2 7 Norte 11 Norte 0 947.7 -- 54
2020-07-24 07:00:00 21.1 0 Calma 8 Nordeste 0 947.3 -- 54
2020-07-24 06:00:00 21.6 0 Calma 5 Norte 0 947.1 -- 49
2020-07-24 05:00:00 22.9 3 Norte 11 Noroeste 0 947.3 -- 46
2020-07-24 04:00:00 24.2 5 Norte 13 Noroeste 0 947.1 -- 40
2020-07-24 03:00:00 25.6 2 Norte 13 Noroeste 0 947.2 -- 38
2020-07-24 02:00:00 26.5 9 Norte 13 Norte 0 947.3 -- 37
2020-07-24 01:00:00 27.6 6 Norte 11 Oeste 0 947.2 -- 33
2020-07-24 00:00:00 30.5 9 Oeste 21 Oeste 0 947.2 -- 31
2020-07-23 23:00:00 29.9 5 Norte 13 Noroeste 0 947.1 -- 27
2020-07-23 22:00:00 32.3 10 Noroeste 22 Noroeste 0 946.6 -- 23
2020-07-23 21:00:00 35.2 13 Oeste 28 Sudoeste 0 946.2 -- 22
2020-07-23 20:00:00 35.9 15 Sudoeste 30 Sudoeste 0 946.2 -- 21
2020-07-23 19:00:00 37.1 10 Oeste 28 Sudoeste 0 946.2 -- 21
2020-07-23 18:00:00 36.3 14 Sur 30 Sur 0 946.9 -- 21
2020-07-23 17:00:00 37.1 11 Oeste 22 Oeste 0 947.5 -- 20
2020-07-23 16:00:00 35.9 9 Oeste 21 Sudoeste 0 948.1 -- 21
2020-07-23 15:00:00 35.5 8 Sudoeste 17 Sur 0 948.8 -- 22
2020-07-23 14:00:00 34.4 11 Oeste 22 Sudoeste 0 949.5 -- 24
2020-07-23 13:00:00 32.7 4 Sur 9 Sur 0 950.1 -- 27
2020-07-23 12:00:00 30 3 Sur 9 Sur 0 950.5 -- 33
2020-07-23 11:00:00 27.9 4 Oeste 8 Oeste 0 950.9 -- 36
2020-07-23 10:00:00 25.3 2 Oeste 9 Norte 0 951.1 -- 41
2020-07-23 09:00:00 22.4 4 Norte 9 Norte 0 951 -- 55
2020-07-23 08:00:00 19.4 5 Norte 11 Norte 0 951.1 -- 68
2020-07-23 07:00:00 19.2 6 Norte 9 Norte 0 950.8 -- 71
2020-07-23 06:00:00 19.9 0 Calma 5 Nordeste 0 950.8 -- 63
2020-07-23 05:00:00 21.1 4 Norte 8 Norte 0 950.9 -- 60
2020-07-23 04:00:00 22.7 5 Nordeste 15 Sur 0 950.9 -- 47
2020-07-23 03:00:00 24.6 10 Sur 17 Sur 0 950.9 -- 42
2020-07-23 02:00:00 26 14 Sur 18 Sudoeste 0 951 -- 40
2020-07-23 01:00:00 25.9 6 Sudeste 15 Sudeste 0 950.9 -- 41
2020-07-23 00:00:00 26.3 4 Este 11 Sudeste 0 950.4 -- 41
2020-07-22 23:00:00 28.3 5 Nordeste 15 Norte 0 950.1 -- 36
2020-07-22 22:00:00 29.5 5 Nordeste 13 Sudeste 0 949.6 -- 32
2020-07-22 21:00:00 32 4 Sudeste 22 Sudoeste 0 948.9 -- 26
2020-07-22 20:00:00 32.9 5 Noroeste 18 Oeste 0 948.8 -- 23
2020-07-22 19:00:00 34.4 8 Sur 15 Noroeste 0 948.9 -- 22
2020-07-22 18:00:00 34.5 -- -- 17 Norte 0 949.1 -- 23
2020-07-22 17:00:00 33.6 -- -- -- -- 0 949.5 -- 26
2020-07-22 16:00:00 33.5 8 Oeste 26 Sudoeste 0 950 -- 26
2020-07-22 15:00:00 31.8 9 Norte 22 Sur 0 950.6 -- 27
2020-07-22 14:00:00 30.8 5 Sur 21 Noroeste 0 951 -- 29
2020-07-22 13:00:00 29.8 8 Oeste 18 Noroeste 0 951.4 -- 31
2020-07-22 12:00:00 28.6 7 Nordeste 22 Este 0 951.7 -- 32
2020-07-22 11:00:00 26.5 6 Sudeste 15 Sudeste 0 951.9 -- 36
2020-07-22 10:00:00 24.1 5 Nordeste 17 Sudeste 0 951.9 -- 50
2020-07-22 09:00:00 20.2 5 Este 13 Este 0 951.7 -- 81
2020-07-22 08:00:00 19 4 Norte 13 Norte 0 951.8 -- 89
2020-07-22 07:00:00 19.2 4 Sudeste 24 Sudeste 0.9 952 -- 82
2020-07-22 06:00:00 20 8 Sur 15 Norte 0 951.5 -- 87
2020-07-22 05:00:00 20.3 8 Norte 15 Norte 0 950.5 -- 86
2020-07-22 04:00:00 20.8 5 Norte 13 Noroeste 0.6 951 -- 82
2020-07-22 03:00:00 24.1 11 Norte 18 Oeste 1.5 950.8 -- 61
2020-07-22 02:00:00 26.1 7 Este 21 Nordeste 0 950.2 -- 42
2020-07-22 01:00:00 26.7 10 Nordeste 24 Nordeste 0 950 -- 37
2020-07-22 00:00:00 28 11 Nordeste 24 Nordeste 0 949.8 -- 34
2020-07-21 23:00:00 29.2 20 Nordeste 42 Nordeste 0 949.6 -- 32
2020-07-21 22:00:00 30.2 19 Norte 32 Norte 0 948.6 -- 31
2020-07-21 21:00:00 32.2 14 Noroeste 18 Noroeste 0 948.4 -- 26
2020-07-21 20:00:00 33.4 13 Oeste 24 Oeste 0 948.1 -- 21
2020-07-21 19:00:00 33.9 13 Oeste 26 Sudoeste 0 948.1 -- 22
2020-07-21 18:00:00 35.5 17 Sudoeste 33 Oeste 0 948.5 -- 19
2020-07-21 17:00:00 35.5 12 Sudoeste 33 Sur 0 948.2 -- 20
2020-07-21 16:00:00 36 14 Sur 32 Sur 0 949 -- 20
2020-07-21 15:00:00 36 18 Sur 30 Sur 0 949.3 -- 19
2020-07-21 14:00:00 35.5 13 Sur 30 Sur 0 949.5 -- 23
2020-07-21 13:00:00 34.2 10 Sudeste 21 Sudeste 0 950.1 -- 27
2020-07-21 12:00:00 31.9 9 Sudeste 18 Este 0 950.4 -- 32
2020-07-21 11:00:00 29.8 10 Nordeste 18 Sudeste 0 950.5 -- 36
2020-07-21 10:00:00 27.6 7 Nordeste 13 Nordeste 0 950.9 -- 42
2020-07-21 09:00:00 24.2 5 Norte 11 Norte 0 951 -- 41
2020-07-21 08:00:00 21.2 9 Noroeste 13 Noroeste 0 950.8 -- 42
2020-07-21 07:00:00 20.3 5 Norte 11 Norte 0 950.4 -- 43
2020-07-21 06:00:00 22 5 Nordeste 11 Nordeste 0 949.9 -- 57
2020-07-21 05:00:00 22.5 6 Norte 13 Sudeste 0 949.8 -- 45
2020-07-21 04:00:00 24.8 6 Norte 17 Sudeste 0 949.5 -- 45
2020-07-21 03:00:00 26.7 9 Sudeste 17 Sudeste 0 949.2 -- 48
2020-07-21 02:00:00 25.5 7 Sudeste 13 Sudeste 0 949 -- 38
2020-07-21 01:00:00 25.6 0 Calma 11 Norte 0 948.8 -- 25
2020-07-21 00:00:00 27.1 3 Este 9 Este 0 948.2 -- 22
2020-07-20 23:00:00 29 2 Sudeste 8 Sur 0 947.7 -- 19
2020-07-20 22:00:00 32 5 Sur 21 Sudoeste 0 947.1 -- 16
2020-07-20 21:00:00 35.8 12 Sur 26 Sur 0 946.7 -- 13
2020-07-20 20:00:00 37.2 9 Sudoeste 24 Sudoeste 0 946.4 -- 11
2020-07-20 19:00:00 37.8 15 Sudoeste 22 Oeste 0 946.5 -- 10
2020-07-20 18:00:00 37.9 13 Sudoeste 30 Sudoeste 0 946.9 -- 10
2020-07-20 17:00:00 37.6 15 Sudoeste 37 Sudoeste 0 947.5 -- 10
2020-07-20 16:00:00 37 13 Oeste 32 Sudoeste 0 947.8 -- 10
2020-07-20 15:00:00 36.4 14 Sudoeste 28 Oeste 0 948.1 -- 11
2020-07-20 14:00:00 34.9 12 Sudoeste -- -- 0 948.6 -- 14
2020-07-20 13:00:00 33.6 -- -- 22 Sur 0 949 -- 16
2020-07-20 12:00:00 30.8 5 Sur 15 Sur 0 949.3 -- 21
2020-07-20 11:00:00 28.2 7 Sur 15 Sudeste 0 949.3 -- 25
2020-07-20 10:00:00 25.9 5 Sudeste 9 Norte 0 949.1 -- 34
2020-07-20 09:00:00 22.3 3 Norte 9 Norte 0 948.6 -- 46
2020-07-20 08:00:00 18.3 5 Norte 9 Norte 0 948.3 -- 56
2020-07-20 07:00:00 17.8 5 Norte 9 Norte 0 948.1 -- 58
2020-07-20 06:00:00 18.7 4 Norte 9 Norte 0 947.8 -- 53
2020-07-20 05:00:00 19.7 8 Norte 13 Noroeste 0 947.6 -- 49
2020-07-20 04:00:00 20.4 7 Norte 9 Norte 0 947.6 -- 47
2020-07-20 03:00:00 21.8 4 Nordeste 15 Norte 0 947.6 -- 44
2020-07-20 02:00:00 23.7 5 Noroeste 15 Norte 0 947.7 -- 37
2020-07-20 01:00:00 26 4 Sudeste 9 Este 0 947.4 -- 32
2020-07-20 00:00:00 28.5 6 Este 24 Nordeste 0 947.3 -- 27
2020-07-19 23:00:00 31.1 9 Este 18 Oeste 0 947.1 -- 22
2020-07-19 22:00:00 33.2 13 Oeste 35 Sudoeste 0 946 -- 17
2020-07-19 21:00:00 35.5 17 Sudoeste 28 Sudoeste 0 945.4 -- 15
2020-07-19 20:00:00 36.8 16 Sudoeste 33 Sudoeste 0 944.9 -- 16
2020-07-19 19:00:00 37.5 15 Sudoeste 39 Oeste 0 945.1 -- 16
2020-07-19 18:00:00 37.7 19 Sudoeste 39 Sudoeste 0 945.6 -- 15
2020-07-19 17:00:00 37.7 20 Sudoeste 45 Sudoeste 0 946.1 -- 17
2020-07-19 16:00:00 37.2 18 Sudoeste 42 Sudoeste 0 946.7 -- 19
2020-07-19 15:00:00 36.4 16 Sur 26 Sudoeste 0 947.1 -- 20
2020-07-19 14:00:00 34.8 11 Sur 21 Sur 0 947.7 -- 24
2020-07-19 13:00:00 32.2 7 Sur 17 Sudeste 0 948.2 -- 32
2020-07-19 12:00:00 30.3 8 Sudeste 18 Sudeste 0 948.5 -0.4 34
2020-07-19 11:00:00 27.8 9 Sudeste 21 Este 0 948.9 0.1 36
2020-07-19 10:00:00 25 5 Norte 9 Norte 0 949 0.5 31
2020-07-19 09:00:00 22.2 0 Calma 11 Noroeste 0 948.9 0.7 30
2020-07-19 08:00:00 18.5 6 Norte 13 Noroeste 0 948.8 -- 35
2020-07-19 07:00:00 18.7 9 Noroeste 13 Noroeste 0 948.5 -- 34
2020-07-19 06:00:00 18.6 5 Norte 9 Este 0 948.2 -- 36
2020-07-19 05:00:00 19.6 4 Norte 13 Este 0 948.1 -- 32
2020-07-19 04:00:00 20.8 7 Norte 11 Norte 0 947.9 -- 30
2020-07-19 03:00:00 21.7 11 Norte 17 Norte 0 947.7 -- 27
2020-07-19 02:00:00 22.3 7 Norte 13 Nordeste 0 948.1 -- 27
2020-07-19 01:00:00 24.3 4 Norte 11 Oeste 0 947.8 -- 21
2020-07-19 00:00:00 26.6 5 Norte 17 Norte 0 947.9 -- 18
2020-07-18 23:00:00 29.3 14 Noroeste 18 Noroeste 0 947.3 -- 15
2020-07-18 22:00:00 31.5 9 Norte 21 Norte 0 946.4 -- 13
2020-07-18 21:00:00 35.7 12 Oeste 18 Sur 0 945.8 -- 8
2020-07-18 20:00:00 36.7 4 Sur 18 Sudeste 0 945.6 -- 13
2020-07-18 19:00:00 36.4 5 Nordeste 21 Sudeste 0 945.6 -- 14
2020-07-18 18:00:00 36.3 8 Sur 18 Este 0 946 -- 15
2020-07-18 17:00:00 35.6 8 Sudoeste 17 Sudoeste 0 946.7 -- 16
2020-07-18 16:00:00 34.7 6 Sudoeste 18 Oeste 0 947.3 -- 17
2020-07-18 15:00:00 33.2 6 Norte 21 Noroeste 0 948 -- 17
2020-07-18 14:00:00 31.6 6 Oeste 17 Oeste 0 948.5 -- 22
2020-07-18 13:00:00 29.4 9 Noroeste 17 Noroeste 0 949.2 -- 34
2020-07-18 12:00:00 28.8 7 Nordeste 13 Sur 0 949.4 -- 37
2020-07-18 11:00:00 26.3 3 Nordeste 13 Nordeste 0 949.7 -- 35
2020-07-18 10:00:00 23 5 Norte 11 Norte 0 950.2 -- 36
2020-07-18 09:00:00 20 9 Norte 13 Norte 0 950.3 -- 39
2020-07-18 08:00:00 17.4 9 Norte 13 Norte 0 950.2 -- 46
2020-07-18 07:00:00 17.3 9 Norte 15 Norte 0 949.9 -- 46
2020-07-18 06:00:00 18.3 10 Norte 15 Norte 0 949.6 -- 44
2020-07-18 05:00:00 19.4 10 Norte 17 Norte 0 949.7 -- 45
2020-07-18 04:00:00 20.5 3 Nordeste 15 Este 0 949.7 -- 41
2020-07-18 03:00:00 21.3 0 Calma 15 Nordeste 0 949.5 -- 38
2020-07-18 02:00:00 23.3 8 Nordeste 28 Nordeste 0 949.3 -- 34
2020-07-18 01:00:00 24.6 9 Nordeste 26 Nordeste 0 949.2 -- 29
2020-07-18 00:00:00 25.9 9 Norte 33 Norte 0 948.9 -- 23
2020-07-17 23:00:00 27.7 18 Norte 33 Norte 0 948.2 -- 17
2020-07-17 22:00:00 29.6 20 Norte 37 Norte 0 947.6 -- 14
2020-07-17 21:00:00 33 22 Norte 33 Norte 0 947.1 -- 13
2020-07-17 20:00:00 34.8 21 Norte 32 Norte 0 946.7 -- 12
2020-07-17 19:00:00 35.9 11 Nordeste 28 Noroeste 0 946.5 -- 12
2020-07-17 18:00:00 35.7 7 Norte 28 Oeste 0 946.9 -- 15
2020-07-17 17:00:00 35.6 13 Norte 41 Noroeste 0 947.4 -- 16
2020-07-17 16:00:00 35.3 10 Norte 24 Norte 0 948 -- 16
2020-07-17 15:00:00 33.8 13 Noroeste 26 Noroeste 0 948.5 -- 16
2020-07-17 14:00:00 33.1 10 Nordeste 22 Norte 0 948.9 -- 17
2020-07-17 13:00:00 32 12 Nordeste 26 Nordeste 0 949.3 -- 18
2020-07-17 12:00:00 30.4 13 Este 22 Nordeste 0 949.8 -- 20
2020-07-17 11:00:00 28.1 13 Nordeste 24 Nordeste 0 950.2 -- 23
2020-07-17 10:00:00 25.8 13 Nordeste 24 Nordeste 0 950.8 -- 25
2020-07-17 09:00:00 23.7 9 Nordeste 18 Norte 0 951 -- 31
2020-07-17 08:00:00 20.4 7 Norte 18 Norte 0 950.8 -- 34
2020-07-17 07:00:00 20.6 10 Norte 17 Norte 0 950.5 -- 33
2020-07-17 06:00:00 21.2 6 Norte 17 Norte 0 950.3 -- 31
2020-07-17 05:00:00 22.1 10 Norte 18 Norte 0 950 -- 37
2020-07-17 04:00:00 22.9 7 Norte 22 Norte 0 949.7 -- 40
2020-07-17 03:00:00 24.1 13 Norte 28 Noroeste 0 949.7 -- 39
2020-07-17 02:00:00 25.2 14 Norte 22 Norte 0 949.7 -- 38
2020-07-17 01:00:00 26.6 13 Norte 37 Nordeste 0 949.9 -- 35
2020-07-17 00:00:00 28.3 18 Nordeste 35 Nordeste 0 949.5 -- 33
2020-07-16 23:00:00 30.5 24 Norte 37 Norte 0 948.9 -- 25
2020-07-16 22:00:00 31.4 2 Sur 13 Sudeste 0 948.2 -- 25
2020-07-16 21:00:00 34.4 8 Sudeste 17 Sur 0 948.1 -- 20
2020-07-16 20:00:00 35.5 6 Sudeste 17 Oeste 0 947.9 -- 19
2020-07-16 19:00:00 36.1 16 Norte 37 Oeste 0 948.3 -- 19
2020-07-16 18:00:00 35.6 9 Sudeste 22 Sudeste 0 948.7 -- 19
2020-07-16 17:00:00 35.3 6 Oeste 17 Norte 0 949.2 -- 19
2020-07-16 16:00:00 34.1 5 Noroeste 17 Sudoeste 0 949.9 -- 20
2020-07-16 15:00:00 32.8 8 Oeste 18 Oeste 0 950.6 -- 22
2020-07-16 14:00:00 31.6 6 Sur 17 Nordeste 0 951.4 -- 25
2020-07-16 13:00:00 30.4 5 Este 22 Este 0 952.2 -- 26
2020-07-16 12:00:00 29.1 10 Sudeste 28 Nordeste 0 952.4 -- 28
2020-07-16 11:00:00 27.3 9 Nordeste 21 Este 0 952.6 -- 26
2020-07-16 10:00:00 24.6 12 Nordeste 18 Nordeste 0 952.9 -- 25
2020-07-16 09:00:00 20.3 11 Norte 21 Norte 0 952.9 -- 40
2020-07-16 08:00:00 18.1 14 Norte 18 Norte 0 952.6 -- 47
2020-07-16 07:00:00 18.2 13 Norte 21 Norte 0 952.5 -- 47
2020-07-16 06:00:00 18.9 12 Norte 18 Norte 0 952.3 -- 45
2020-07-16 05:00:00 19.7 14 Norte 21 Norte 0 952.1 -- 46
2020-07-16 04:00:00 20.5 10 Noroeste 21 Norte 0 952.2 -- 45
2020-07-16 03:00:00 21.2 8 Norte 28 Nordeste 0 952 -- 45
2020-07-16 02:00:00 22 18 Nordeste 37 Este 0 951.6 -- 44
2020-07-16 01:00:00 23.4 16 Nordeste 37 Nordeste 0 951.3 -- 41
2020-07-16 00:00:00 25.8 15 Nordeste 28 Nordeste 0 951 -- 34
2020-07-15 23:00:00 27.6 10 Nordeste 24 Nordeste 0 949.8 -- 27
2020-07-15 22:00:00 29.1 12 Nordeste 22 Nordeste 0 949.1 -- 23
2020-07-15 21:00:00 31.9 8 Nordeste 18 Nordeste 0 948.7 -- 17
2020-07-15 20:00:00 33.2 7 Nordeste 18 Este 0 948.4 -- 17
2020-07-15 19:00:00 33.7 5 Norte 21 Norte 0 948.5 -- 17
2020-07-15 18:00:00 33.6 8 Este 30 Este 0 948.8 -- 17
2020-07-15 17:00:00 33.2 10 Oeste 26 Norte 0 949.1 -- 17
2020-07-15 16:00:00 32.8 9 Norte 22 Norte 0 949.5 -- 19
2020-07-15 15:00:00 31.3 9 Norte 32 Este 0 949.9 -- 22
2020-07-15 14:00:00 30.8 8 Este 28 Norte 0 950.4 -- 25
2020-07-15 13:00:00 28.9 6 Este 21 Nordeste 0 950.9 -- 30
2020-07-15 12:00:00 26.9 9 Este 18 Norte 0 951.2 -- 35
2020-07-15 11:00:00 25 7 Nordeste 21 Norte 0 951.2 -- 37
2020-07-15 10:00:00 23 10 Este 17 Este 0 951.2 -- 35
2020-07-15 09:00:00 20.9 9 Nordeste 17 Nordeste 0 951 -- 38
2020-07-15 08:00:00 17.7 8 Nordeste 17 Norte 0 950.5 -- 47
2020-07-15 07:00:00 17.3 7 Norte 17 Norte 0 950.1 -- 49
2020-07-15 06:00:00 17.5 5 Norte 15 Norte 0 949.7 -- 50
2020-07-15 05:00:00 18.8 8 Norte 21 Nordeste 0 949.6 -- 47
2020-07-15 04:00:00 19.7 8 Norte 21 Norte 0 949.6 -- 46
2020-07-15 03:00:00 19.8 10 Norte 17 Norte 0 949.8 -- 46
2020-07-15 02:00:00 20.5 7 Norte 13 Norte 0 949.6 -- 48
2020-07-15 01:00:00 21.9 4 Nordeste 15 Este 0 949.5 -- 52
2020-07-15 00:00:00 23 6 Este 22 Este 0 949.3 -- 49
2020-07-14 23:00:00 24.1 9 Sudeste 24 Sudeste 0 948.4 -- 46
2020-07-14 22:00:00 25.3 14 Sudeste 33 Sudeste 0 947.3 -- 45
2020-07-14 21:00:00 28.9 23 Sudeste 37 Este 0 946.5 -- 37
2020-07-14 20:00:00 32.8 10 Nordeste 28 Nordeste 0 945.4 -- 14
2020-07-14 19:00:00 34 12 Nordeste 35 Nordeste 0 944.8 -- 13
2020-07-14 18:00:00 34.1 12 Norte 30 Norte 0 945.1 -- 14
2020-07-14 17:00:00 33.8 13 Norte 28 Norte 0 945.5 -- 13
2020-07-14 16:00:00 33.1 9 Norte 26 Norte 0 946.3 -- 16
2020-07-14 15:00:00 32.4 6 Norte 22 Nordeste 0 947.2 -- 19
2020-07-14 14:00:00 31.1 6 Norte 24 Norte 0 948 -- 25
2020-07-14 13:00:00 29.8 9 Este 22 Nordeste 0 948.7 -- 30
2020-07-14 12:00:00 28 12 Nordeste 21 Norte 0 949.5 -- 31
2020-07-14 11:00:00 26.8 11 Nordeste 18 Norte 0 950 -- 24
2020-07-14 10:00:00 24 10 Nordeste 22 Nordeste 0 950.4 -- 23
2020-07-14 09:00:00 21.1 9 Norte 18 Norte 0 950.9 -- 24
2020-07-14 08:00:00 19.4 11 Norte 18 Norte 0 950.9 -- 29
2020-07-14 07:00:00 19.4 12 Norte 21 Norte 0 951 -- 35
2020-07-14 06:00:00 19.9 11 Norte 22 Norte 0 950.9 -- 39
2020-07-14 05:00:00 21 13 Norte 21 Norte 0 951 -- 46
2020-07-14 04:00:00 21.8 11 Norte 22 Norte 0 951 -- 47
2020-07-14 03:00:00 22.8 6 Norte 24 Norte 0 951.1 -- 46
2020-07-14 02:00:00 23.8 13 Norte 28 Norte 0 951.1 -- 45
2020-07-14 01:00:00 25.3 14 Nordeste 30 Norte 0 951.2 -- 43
2020-07-14 00:00:00 26.9 17 Nordeste 39 Nordeste 0 951 -- 40
2020-07-13 23:00:00 29.2 22 Norte 28 Norte 0 950 -- 34
2020-07-13 22:00:00 30.5 9 Nordeste 24 Nordeste 0 949 0.4 30
2020-07-13 21:00:00 32.2 15 Nordeste 28 Nordeste 0 948.8 -0.3 29
2020-07-13 20:00:00 33.7 7 Nordeste 15 Nordeste 0 948.6 -1.1 25
2020-07-13 19:00:00 35 11 Este 33 Sudeste 0 948.6 -1.7 22
2020-07-13 18:00:00 35.3 9 Sudeste 21 Sudeste 0 949.1 -1.7 22
2020-07-13 17:00:00 34.6 6 Oeste 26 Este 0 949.7 -1.8 23
2020-07-13 16:00:00 34.7 12 Norte 26 Norte 0 950.3 -1.7 25
2020-07-13 15:00:00 33.7 6 Nordeste 24 Norte 0 950.8 -1.6 27
2020-07-13 14:00:00 32.9 12 Nordeste 26 Nordeste 0 951.5 -1 28
2020-07-13 13:00:00 31.6 14 Norte 28 Sudeste 0 952 -0.8 30
2020-07-13 12:00:00 29.9 12 Este 24 Nordeste 0 952.4 -0.5 34
2020-07-13 11:00:00 28.2 11 Este 21 Este 0 952.5 -0.1 37
2020-07-13 10:00:00 25.2 10 Norte 15 Nordeste 0 952.8 0.4 43
2020-07-13 09:00:00 21.2 8 Norte 13 Noroeste 0 952.9 0.8 53
2020-07-13 08:00:00 18.2 9 Norte 11 Norte 0 952.6 0.6 64
2020-07-13 07:00:00 16.8 3 Nordeste 5 Norte 0 952.4 -- 70
2020-07-13 06:00:00 18.4 7 Norte 17 Norte 0 952.1 -0.2 64
2020-07-13 05:00:00 18.7 8 Norte 11 Norte 0 952 -0.4 63
2020-07-13 04:00:00 19.3 5 Nordeste 13 Nordeste 0 952.2 -0.2 62
2020-07-13 03:00:00 20.1 10 Norte 13 Norte 0 952.3 0.1 57
2020-07-13 02:00:00 20.7 4 Norte 11 Nordeste 0 952.4 0.6 55
2020-07-13 01:00:00 21.6 8 Este 17 Nordeste 0 952.4 1 54
2020-07-13 00:00:00 22.4 10 Nordeste 22 Este 0 952.2 1.4 50
2020-07-12 23:00:00 22.9 5 Noroeste 21 Norte 0 951.8 2.3 50
2020-07-12 22:00:00 24.2 12 Nordeste 28 Nordeste 0 951.4 2.2 48
2020-07-12 21:00:00 25.6 15 Nordeste 33 Este 0 950.8 1.9 44
2020-07-12 20:00:00 28.6 14 Sudeste 33 Sudeste 0 949.5 1.7 38
2020-07-12 19:00:00 28 19 Sudeste 46 Sur 0 949.2 1 39
2020-07-12 18:00:00 30.7 23 Sudeste 39 Sudeste 0 948.9 -0.1 36
2020-07-12 17:00:00 34.6 15 Sudoeste 33 Oeste 0 947.8 -1.7 25
2020-07-12 16:00:00 32.7 9 Oeste 22 Oeste 0 948.2 -1.6 29
2020-07-12 15:00:00 33.8 8 Sudeste 21 Sudeste 0 949 -- 29
2020-07-12 14:00:00 32.3 8 Sudeste 22 Sur 0 949.5 -0.9 33
2020-07-12 13:00:00 30.1 6 Este 18 Este 0 949.8 -- 37
2020-07-12 12:00:00 28.7 9 Nordeste 22 Este 0 950.2 -- 40
2020-07-12 11:00:00 27.3 11 Este 22 Este 0 950.4 -- 43
2020-07-12 10:00:00 23.8 8 Sudeste 13 Sudeste 0 950.7 1.2 59
2020-07-12 09:00:00 22.9 5 Nordeste 17 Este 0 949.9 -- 61
2020-07-12 08:00:00 23 0 Calma 13 Norte 0 949.6 -- 59
2020-07-12 07:00:00 23.4 11 Norte 21 Noroeste 0 949.5 -- 58
2020-07-12 06:00:00 24.3 6 Este 17 Sudeste 0 948.7 -- 56
2020-07-12 05:00:00 24.4 10 Este 15 Sudeste 0 948.5 -- 56
2020-07-12 04:00:00 25.1 11 Este 22 Este 0 949.1 -- 56
2020-07-12 03:00:00 25.4 8 Sudeste 22 Sudeste 0 949.1 -- 55
2020-07-12 02:00:00 26.1 7 Este 30 Sudeste 0 948.2 -- 53
2020-07-12 01:00:00 27.1 20 Sudeste 33 Sudeste 0 948.2 -- 49
2020-07-12 00:00:00 28.6 23 Sudeste 35 Sudeste 0 948.2 -- 42
2020-07-11 23:00:00 30 25 Sudeste 37 Sudeste 0 947.6 -- 36
2020-07-11 22:00:00 31.7 20 Sudeste 35 Sudeste 0 947.1 -- 30
2020-07-11 21:00:00 33.9 26 Sudeste 35 Sudeste 0 946.7 -- 26
2020-07-11 20:00:00 36.4 13 Sudeste 30 Sur 0 946.5 -- 18
2020-07-11 19:00:00 37.3 17 Sudeste 28 Sudeste 0 946.6 -1.3 17
2020-07-11 18:00:00 36.1 14 Sur 28 Sur 0 947.2 -- 19
2020-07-11 17:00:00 36.1 18 Sudeste 28 Sur 0 947.5 -- 20
2020-07-11 16:00:00 36.4 8 Este 30 Sur 0 947.9 -- 18
2020-07-11 15:00:00 35.6 17 Sudeste 32 Sudeste 0 948.4 -- 20
2020-07-11 14:00:00 34.5 15 Sur 30 Sudeste 0 949.1 -- 21
2020-07-11 13:00:00 32.9 8 Sur 22 Sudeste 0 949.5 -- 27
2020-07-11 12:00:00 30.9 7 Este 21 Nordeste 0 949.9 -- 32
2020-07-11 11:00:00 29 8 Nordeste 18 Este 0 950.2 -- 38
2020-07-11 10:00:00 26.4 10 Norte 18 Norte 0 950.3 -- 47
2020-07-11 09:00:00 23.4 7 Norte 15 Norte 0 950.3 -- 55
2020-07-11 08:00:00 20.9 6 Norte 11 Norte 0 950.1 -- 64
2020-07-11 07:00:00 20.7 3 Norte 18 Norte 0 949.8 -- 63
2020-07-11 06:00:00 21.2 8 Norte 15 Nordeste 0 949.4 -- 62
2020-07-11 05:00:00 21.2 4 Norte 9 Norte 0 949.2 -- 58
2020-07-11 04:00:00 22.3 6 Norte 15 Norte 0 949.1 -- 53
2020-07-11 03:00:00 23 10 Norte 15 Norte 0 949 -- 52
2020-07-11 02:00:00 23.9 5 Norte 15 Norte 0 949 1.8 49
2020-07-11 01:00:00 25.2 11 Noroeste 18 Norte 0 948.5 -- 41
2020-07-11 00:00:00 26.5 6 Este 9 Este 0 947.7 -- 33
2020-07-10 23:00:00 26.9 4 Este 8 Este 0 947.2 -- 32
2020-07-10 22:00:00 29.1 3 Sudeste 5 Este 0 946.7 -- 28
2020-07-10 21:00:00 32.3 4 Sudeste 9 Sudeste 0 946.4 -- 23
2020-07-10 20:00:00 33.6 7 Sudeste 17 Sudoeste 0 946.3 -- 22
2020-07-10 19:00:00 33.7 8 Sudeste 21 Sur 0 946.3 -- 22
2020-07-10 18:00:00 33.1 5 Nordeste 22 Sur 0 946.6 -- 22
2020-07-10 17:00:00 32.8 5 Sudoeste 30 Este 0 946.9 -- 24
2020-07-10 16:00:00 31.7 10 Sudoeste 24 Oeste 0 947.3 -- 26
2020-07-10 15:00:00 32.1 8 Sur 22 Sur 0 947.9 -- 26
2020-07-10 14:00:00 30.6 8 Oeste 17 Sur 0 948.5 -0.9 30
2020-07-10 13:00:00 29.8 9 Sur 17 Sur 0 948.8 -- 31
2020-07-10 12:00:00 28.1 5 Sur 11 Sudoeste 0 949.2 -- 34
2020-07-10 11:00:00 26.1 4 Sur 13 Norte 0 949.4 -0.3 39
2020-07-10 10:00:00 23 6 Norte 15 Norte 0 949.7 -- 49
2020-07-10 09:00:00 20.1 12 Norte 17 Norte 0 949.6 -- 57
2020-07-10 08:00:00 18 10 Norte 15 Norte 0 949.7 -- 67
2020-07-10 07:00:00 17.6 7 Norte 11 Norte 0 949.7 -- 67
2020-07-10 06:00:00 18.8 6 Norte 13 Norte 0 949.5 -- 63
2020-07-10 05:00:00 19.8 8 Norte 13 Norte 0 949.5 -- 59
2020-07-10 04:00:00 19.9 2 Norte 17 Norte 0 949.8 -- 57
2020-07-10 03:00:00 19.9 8 Este 17 Este 0 950.1 -- 60
2020-07-10 02:00:00 20.8 6 Este 15 Norte 0 950.4 -- 57
2020-07-10 01:00:00 21 12 Norte 21 Norte 0 950.4 -- 58
2020-07-10 00:00:00 21.2 15 Norte 22 Norte 0 950.6 -- 56
2020-07-09 23:00:00 21.8 11 Norte 24 Este 0 950.5 -- 50
2020-07-09 22:00:00 23 14 Este 30 Sudeste 0 949.9 -- 43
2020-07-09 21:00:00 23.8 17 Este 46 Sudeste 0 950.6 -- 41
2020-07-09 20:00:00 29.5 22 Nordeste 48 Nordeste 0 949.4 -- 27
2020-07-09 19:00:00 29.2 32 Norte 52 Norte 0 948.4 -- 35
2020-07-09 18:00:00 28.7 28 Norte 39 Norte 0 948.3 -- 36
2020-07-09 17:00:00 33.8 12 Sudeste 33 Sur 0 947.9 -- 20
2020-07-09 16:00:00 34.7 20 Sur 32 Sur 0 948.1 -- 19
2020-07-09 15:00:00 33.9 9 Sudeste 17 Este 0 948.5 -- 22
2020-07-09 14:00:00 33 8 Sur 18 Sur 0 949.2 -- 24
2020-07-09 13:00:00 31.6 10 Sudeste 21 Sudeste 0 949.6 -- 28
2020-07-09 12:00:00 29.9 8 Sur 18 Este 0 950 -- 35
2020-07-09 11:00:00 28.2 8 Nordeste 15 Este 0 950.4 -- 39
2020-07-09 10:00:00 26.5 3 Este 13 Nordeste 0 950.2 -- 42
2020-07-09 09:00:00 23.5 9 Norte 17 Norte 0 950.2 -- 42
2020-07-09 08:00:00 20.8 15 Norte 21 Norte 0 949.9 -- 46
2020-07-09 07:00:00 21.5 6 Norte 15 Nordeste 0 949.3 -- 44
2020-07-09 06:00:00 22.4 8 Nordeste 17 Nordeste 0 949 -- 41
2020-07-09 05:00:00 21.4 6 Nordeste 13 Este 0 948.9 -- 45
2020-07-09 04:00:00 22.4 7 Este 11 Este 0 948.5 -- 42
2020-07-09 03:00:00 23.2 5 Este 13 Este 0 948.8 -- 38
2020-07-09 02:00:00 24 3 Norte 18 Norte 0 948.8 -- 37
2020-07-09 01:00:00 25.5 16 Norte 26 Norte 0 948.6 -- 35
2020-07-09 00:00:00 26.3 14 Norte 35 Norte 0 948.4 -- 33
2020-07-08 23:00:00 27.7 13 Norte 24 Sudeste 0 947.4 -- 32
2020-07-08 22:00:00 28.8 11 Este 42 Sudeste 0 946.1 -- 31
2020-07-08 21:00:00 30.5 23 Sudeste 54 Sudeste 0 945.8 -- 27
2020-07-08 20:00:00 32.7 30 Sudeste 61 Sudeste 0 945.2 -- 25
2020-07-08 19:00:00 34.2 33 Sudeste 63 Sudeste 0 945.1 -- 22
2020-07-08 18:00:00 35.5 20 Sudeste 41 Sur 0 945.1 -- 19
2020-07-08 17:00:00 35.7 19 Este 39 Este 0 945.3 -- 18
2020-07-08 16:00:00 34.9 25 Sudeste 39 Sudeste 0 946 -- 18
2020-07-08 15:00:00 34.1 15 Sudeste 41 Sur 0 946.7 -- 17
2020-07-08 14:00:00 36.4 16 Sudeste 30 Este 0 947 -- 16
2020-07-08 13:00:00 35.9 17 Sudeste 24 Sudeste 0 947.6 -- 18
2020-07-08 12:00:00 33.9 15 Este 33 Nordeste 0 947.8 -- 21
2020-07-08 11:00:00 31.1 14 Nordeste 39 Este 0 948 -- 28
2020-07-08 10:00:00 26.7 13 Nordeste 33 Este 0 948.3 -- 35
2020-07-08 09:00:00 24.8 13 Nordeste 46 Oeste 0 949 -- 37
2020-07-08 08:00:00 24.3 11 Norte 26 Norte 0 948.3 -- 36
2020-07-08 07:00:00 22.8 10 Nordeste 15 Nordeste 0 946.8 -- 39
2020-07-08 06:00:00 23.9 7 Este 21 Sur 0 947.8 -- 36
2020-07-08 05:00:00 23.7 7 Norte 15 Norte 0 947.6 -- 34
2020-07-08 04:00:00 24.2 9 Norte 13 Norte 0 947.4 -- 33
2020-07-08 03:00:00 25.7 4 Nordeste 15 Nordeste 0 947.4 -- 29
2020-07-08 02:00:00 25.8 5 Nordeste 13 Nordeste 0 947.5 -- 26
2020-07-08 01:00:00 28.2 5 Norte 11 Nordeste 0 947.5 -- 22
2020-07-08 00:00:00 32.4 13 Oeste 22 Oeste 0 947.1 -- 18